sensor_id;sensor_type;location;lat;lon;timestamp;P1;durP1;ratioP1;P2;durP2;ratioP2
62071;SDS011;48031;48.542;13.232;2023-12-28T00:02:10;2.92;;;2.28;;
62071;SDS011;48031;48.542;13.232;2023-12-28T00:06:12;1.42;;;1.33;;
62071;SDS011;48031;48.542;13.232;2023-12-28T00:10:14;1.50;;;1.40;;
62071;SDS011;48031;48.542;13.232;2023-12-28T00:14:16;3.70;;;2.60;;
62071;SDS011;48031;48.542;13.232;2023-12-28T00:18:18;2.28;;;2.05;;
62071;SDS011;48031;48.542;13.232;2023-12-28T00:22:23;2.53;;;1.98;;
62071;SDS011;48031;48.542;13.232;2023-12-28T00:26:25;2.85;;;2.50;;
62071;SDS011;48031;48.542;13.232;2023-12-28T00:30:36;3.53;;;2.30;;
62071;SDS011;48031;48.542;13.232;2023-12-28T00:34:39;5.80;;;3.20;;
62071;SDS011;48031;48.542;13.232;2023-12-28T00:38:41;3.83;;;2.30;;
62071;SDS011;48031;48.542;13.232;2023-12-28T00:42:43;3.83;;;2.75;;
62071;SDS011;48031;48.542;13.232;2023-12-28T00:46:45;4.57;;;3.30;;
62071;SDS011;48031;48.542;13.232;2023-12-28T00:50:47;4.47;;;2.38;;
62071;SDS011;48031;48.542;13.232;2023-12-28T00:54:49;5.07;;;2.80;;
62071;SDS011;48031;48.542;13.232;2023-12-28T00:58:51;5.03;;;3.00;;
62071;SDS011;48031;48.542;13.232;2023-12-28T01:02:53;7.03;;;4.40;;
62071;SDS011;48031;48.542;13.232;2023-12-28T01:06:55;5.90;;;3.50;;
62071;SDS011;48031;48.542;13.232;2023-12-28T01:10:57;4.88;;;2.80;;
62071;SDS011;48031;48.542;13.232;2023-12-28T01:14:59;5.00;;;3.10;;
62071;SDS011;48031;48.542;13.232;2023-12-28T01:19:01;6.88;;;4.03;;
62071;SDS011;48031;48.542;13.232;2023-12-28T01:23:03;7.05;;;3.70;;
62071;SDS011;48031;48.542;13.232;2023-12-28T01:27:06;10.32;;;4.05;;
62071;SDS011;48031;48.542;13.232;2023-12-28T01:31:08;5.28;;;3.33;;
62071;SDS011;48031;48.542;13.232;2023-12-28T01:35:11;5.68;;;2.47;;
62071;SDS011;48031;48.542;13.232;2023-12-28T01:39:14;4.18;;;2.80;;
62071;SDS011;48031;48.542;13.232;2023-12-28T01:43:17;3.00;;;2.13;;
62071;SDS011;48031;48.542;13.232;2023-12-28T01:47:19;4.32;;;3.20;;
62071;SDS011;48031;48.542;13.232;2023-12-28T01:51:20;4.68;;;2.75;;
62071;SDS011;48031;48.542;13.232;2023-12-28T01:55:23;3.08;;;2.15;;
62071;SDS011;48031;48.542;13.232;2023-12-28T01:59:25;6.30;;;2.95;;
62071;SDS011;48031;48.542;13.232;2023-12-28T02:03:28;4.07;;;2.70;;
62071;SDS011;48031;48.542;13.232;2023-12-28T02:07:30;6.20;;;3.88;;
62071;SDS011;48031;48.542;13.232;2023-12-28T02:11:34;4.05;;;3.00;;
62071;SDS011;48031;48.542;13.232;2023-12-28T02:15:37;5.28;;;3.13;;
62071;SDS011;48031;48.542;13.232;2023-12-28T02:23:48;3.67;;;2.97;;
62071;SDS011;48031;48.542;13.232;2023-12-28T02:27:50;3.88;;;2.65;;
62071;SDS011;48031;48.542;13.232;2023-12-28T02:31:53;4.10;;;2.58;;
62071;SDS011;48031;48.542;13.232;2023-12-28T02:35:58;4.57;;;3.03;;
62071;SDS011;48031;48.542;13.232;2023-12-28T02:40:02;3.50;;;2.50;;
62071;SDS011;48031;48.542;13.232;2023-12-28T02:44:03;4.53;;;2.35;;
62071;SDS011;48031;48.542;13.232;2023-12-28T02:48:05;6.97;;;4.28;;
62071;SDS011;48031;48.542;13.232;2023-12-28T02:52:07;5.53;;;3.38;;
62071;SDS011;48031;48.542;13.232;2023-12-28T02:56:09;2.92;;;2.33;;
62071;SDS011;48031;48.542;13.232;2023-12-28T03:00:11;5.82;;;3.28;;
62071;SDS011;48031;48.542;13.232;2023-12-28T03:04:13;2.00;;;1.60;;
62071;SDS011;48031;48.542;13.232;2023-12-28T03:08:15;2.97;;;2.30;;
62071;SDS011;48031;48.542;13.232;2023-12-28T03:12:17;4.80;;;3.05;;
62071;SDS011;48031;48.542;13.232;2023-12-28T03:16:19;5.25;;;3.25;;
62071;SDS011;48031;48.542;13.232;2023-12-28T03:20:21;2.25;;;1.70;;
62071;SDS011;48031;48.542;13.232;2023-12-28T03:24:22;4.32;;;2.40;;
62071;SDS011;48031;48.542;13.232;2023-12-28T03:28:24;2.63;;;2.20;;
62071;SDS011;48031;48.542;13.232;2023-12-28T03:32:26;7.90;;;4.18;;
62071;SDS011;48031;48.542;13.232;2023-12-28T03:36:28;6.65;;;3.65;;
62071;SDS011;48031;48.542;13.232;2023-12-28T03:40:30;10.43;;;5.00;;
62071;SDS011;48031;48.542;13.232;2023-12-28T03:44:32;9.52;;;4.18;;
62071;SDS011;48031;48.542;13.232;2023-12-28T03:48:35;7.55;;;3.85;;
62071;SDS011;48031;48.542;13.232;2023-12-28T03:52:36;6.25;;;3.70;;
62071;SDS011;48031;48.542;13.232;2023-12-28T03:56:39;5.32;;;2.80;;
62071;SDS011;48031;48.542;13.232;2023-12-28T04:00:44;6.18;;;2.85;;
62071;SDS011;48031;48.542;13.232;2023-12-28T04:04:46;3.88;;;2.90;;
62071;SDS011;48031;48.542;13.232;2023-12-28T04:08:48;3.42;;;2.42;;
62071;SDS011;48031;48.542;13.232;2023-12-28T04:12:50;4.05;;;3.05;;
62071;SDS011;48031;48.542;13.232;2023-12-28T04:16:56;5.07;;;3.30;;
62071;SDS011;48031;48.542;13.232;2023-12-28T04:20:58;12.55;;;4.90;;
62071;SDS011;48031;48.542;13.232;2023-12-28T04:25:00;2.80;;;2.30;;
62071;SDS011;48031;48.542;13.232;2023-12-28T04:29:02;5.75;;;3.78;;
62071;SDS011;48031;48.542;13.232;2023-12-28T04:33:04;4.00;;;2.63;;
62071;SDS011;48031;48.542;13.232;2023-12-28T04:37:06;4.68;;;2.92;;
62071;SDS011;48031;48.542;13.232;2023-12-28T04:41:09;3.40;;;2.50;;
62071;SDS011;48031;48.542;13.232;2023-12-28T04:45:11;4.85;;;2.85;;
62071;SDS011;48031;48.542;13.232;2023-12-28T04:49:13;3.40;;;2.60;;
62071;SDS011;48031;48.542;13.232;2023-12-28T04:53:15;7.13;;;4.63;;
62071;SDS011;48031;48.542;13.232;2023-12-28T04:57:17;6.32;;;3.75;;
62071;SDS011;48031;48.542;13.232;2023-12-28T05:01:19;5.47;;;2.75;;
62071;SDS011;48031;48.542;13.232;2023-12-28T05:05:22;4.72;;;3.45;;
62071;SDS011;48031;48.542;13.232;2023-12-28T05:09:24;6.13;;;3.53;;
62071;SDS011;48031;48.542;13.232;2023-12-28T05:13:26;5.85;;;4.18;;
62071;SDS011;48031;48.542;13.232;2023-12-28T05:17:28;5.93;;;4.32;;
62071;SDS011;48031;48.542;13.232;2023-12-28T05:21:30;4.78;;;3.17;;
62071;SDS011;48031;48.542;13.232;2023-12-28T05:25:32;5.95;;;3.80;;
62071;SDS011;48031;48.542;13.232;2023-12-28T05:29:33;6.20;;;3.25;;
62071;SDS011;48031;48.542;13.232;2023-12-28T05:33:35;6.20;;;3.88;;
62071;SDS011;48031;48.542;13.232;2023-12-28T05:37:37;9.13;;;4.32;;
62071;SDS011;48031;48.542;13.232;2023-12-28T05:41:39;8.10;;;4.75;;
62071;SDS011;48031;48.542;13.232;2023-12-28T05:45:42;5.78;;;3.67;;
62071;SDS011;48031;48.542;13.232;2023-12-28T05:49:44;6.97;;;4.03;;
62071;SDS011;48031;48.542;13.232;2023-12-28T05:53:46;4.03;;;2.60;;
62071;SDS011;48031;48.542;13.232;2023-12-28T05:57:48;3.13;;;2.38;;
62071;SDS011;48031;48.542;13.232;2023-12-28T06:01:50;5.75;;;3.42;;
62071;SDS011;48031;48.542;13.232;2023-12-28T06:05:52;5.15;;;3.75;;
62071;SDS011;48031;48.542;13.232;2023-12-28T06:09:54;4.13;;;2.70;;
62071;SDS011;48031;48.542;13.232;2023-12-28T06:13:55;5.82;;;3.47;;
62071;SDS011;48031;48.542;13.232;2023-12-28T06:17:57;2.97;;;2.10;;
62071;SDS011;48031;48.542;13.232;2023-12-28T06:21:59;5.07;;;3.08;;
62071;SDS011;48031;48.542;13.232;2023-12-28T06:26:05;4.70;;;3.58;;
62071;SDS011;48031;48.542;13.232;2023-12-28T06:30:07;1.85;;;1.73;;
62071;SDS011;48031;48.542;13.232;2023-12-28T06:34:09;2.92;;;2.10;;
62071;SDS011;48031;48.542;13.232;2023-12-28T06:38:11;3.22;;;2.25;;
62071;SDS011;48031;48.542;13.232;2023-12-28T06:42:13;4.65;;;3.10;;
62071;SDS011;48031;48.542;13.232;2023-12-28T06:46:16;3.08;;;2.60;;
62071;SDS011;48031;48.542;13.232;2023-12-28T06:50:18;3.72;;;2.95;;
62071;SDS011;48031;48.542;13.232;2023-12-28T06:54:20;2.20;;;2.00;;
62071;SDS011;48031;48.542;13.232;2023-12-28T06:58:22;2.85;;;2.25;;
62071;SDS011;48031;48.542;13.232;2023-12-28T07:02:24;2.60;;;1.80;;
62071;SDS011;48031;48.542;13.232;2023-12-28T07:06:26;4.35;;;3.17;;
62071;SDS011;48031;48.542;13.232;2023-12-28T07:10:28;8.15;;;5.97;;
62071;SDS011;48031;48.542;13.232;2023-12-28T07:14:30;4.00;;;2.88;;
62071;SDS011;48031;48.542;13.232;2023-12-28T07:18:31;5.38;;;3.67;;
62071;SDS011;48031;48.542;13.232;2023-12-28T07:22:33;6.53;;;4.63;;
62071;SDS011;48031;48.542;13.232;2023-12-28T07:26:35;5.35;;;3.75;;
62071;SDS011;48031;48.542;13.232;2023-12-28T07:30:37;4.93;;;3.42;;
62071;SDS011;48031;48.542;13.232;2023-12-28T07:34:39;6.90;;;3.08;;
62071;SDS011;48031;48.542;13.232;2023-12-28T07:38:41;8.30;;;4.63;;
62071;SDS011;48031;48.542;13.232;2023-12-28T07:42:43;7.20;;;3.50;;
62071;SDS011;48031;48.542;13.232;2023-12-28T07:46:45;5.05;;;3.38;;
62071;SDS011;48031;48.542;13.232;2023-12-28T07:50:48;5.43;;;3.95;;
62071;SDS011;48031;48.542;13.232;2023-12-28T07:54:50;8.25;;;3.88;;
62071;SDS011;48031;48.542;13.232;2023-12-28T07:58:52;8.48;;;4.55;;
62071;SDS011;48031;48.542;13.232;2023-12-28T08:02:54;7.45;;;4.60;;
62071;SDS011;48031;48.542;13.232;2023-12-28T08:06:56;6.20;;;3.90;;
62071;SDS011;48031;48.542;13.232;2023-12-28T08:10:58;6.70;;;3.85;;
62071;SDS011;48031;48.542;13.232;2023-12-28T08:15:00;8.35;;;3.95;;
62071;SDS011;48031;48.542;13.232;2023-12-28T08:19:02;6.05;;;3.45;;
62071;SDS011;48031;48.542;13.232;2023-12-28T08:23:04;5.93;;;4.00;;
62071;SDS011;48031;48.542;13.232;2023-12-28T08:27:18;7.95;;;4.85;;
62071;SDS011;48031;48.542;13.232;2023-12-28T08:31:20;6.68;;;4.38;;
62071;SDS011;48031;48.542;13.232;2023-12-28T08:35:22;8.77;;;4.20;;
62071;SDS011;48031;48.542;13.232;2023-12-28T08:39:24;7.40;;;3.83;;
62071;SDS011;48031;48.542;13.232;2023-12-28T08:43:25;7.90;;;4.07;;
62071;SDS011;48031;48.542;13.232;2023-12-28T08:47:27;10.15;;;5.28;;
62071;SDS011;48031;48.542;13.232;2023-12-28T08:51:29;10.23;;;5.43;;
62071;SDS011;48031;48.542;13.232;2023-12-28T08:55:31;11.65;;;5.10;;
62071;SDS011;48031;48.542;13.232;2023-12-28T08:59:36;13.43;;;5.35;;
62071;SDS011;48031;48.542;13.232;2023-12-28T09:03:38;10.77;;;6.05;;
62071;SDS011;48031;48.542;13.232;2023-12-28T09:07:40;11.60;;;6.38;;
62071;SDS011;48031;48.542;13.232;2023-12-28T09:11:45;9.05;;;5.13;;
62071;SDS011;48031;48.542;13.232;2023-12-28T09:15:46;7.75;;;3.50;;
62071;SDS011;48031;48.542;13.232;2023-12-28T09:19:48;7.45;;;4.35;;
62071;SDS011;48031;48.542;13.232;2023-12-28T09:23:50;10.32;;;4.97;;
62071;SDS011;48031;48.542;13.232;2023-12-28T09:27:52;10.65;;;5.80;;
62071;SDS011;48031;48.542;13.232;2023-12-28T09:31:55;14.90;;;7.00;;
62071;SDS011;48031;48.542;13.232;2023-12-28T09:35:57;17.85;;;9.15;;
62071;SDS011;48031;48.542;13.232;2023-12-28T09:39:59;11.50;;;6.57;;
62071;SDS011;48031;48.542;13.232;2023-12-28T09:44:07;9.40;;;4.60;;
62071;SDS011;48031;48.542;13.232;2023-12-28T09:48:09;10.50;;;5.07;;
62071;SDS011;48031;48.542;13.232;2023-12-28T09:52:12;9.00;;;4.78;;
62071;SDS011;48031;48.542;13.232;2023-12-28T09:56:14;10.35;;;4.55;;
62071;SDS011;48031;48.542;13.232;2023-12-28T10:00:16;10.80;;;6.40;;
62071;SDS011;48031;48.542;13.232;2023-12-28T10:04:18;8.25;;;5.40;;
62071;SDS011;48031;48.542;13.232;2023-12-28T10:08:20;8.68;;;4.72;;
62071;SDS011;48031;48.542;13.232;2023-12-28T10:12:22;8.63;;;4.97;;
62071;SDS011;48031;48.542;13.232;2023-12-28T10:16:25;10.13;;;5.35;;
62071;SDS011;48031;48.542;13.232;2023-12-28T10:20:28;8.77;;;5.10;;
62071;SDS011;48031;48.542;13.232;2023-12-28T10:24:30;8.48;;;4.60;;
62071;SDS011;48031;48.542;13.232;2023-12-28T10:28:32;5.93;;;3.75;;
62071;SDS011;48031;48.542;13.232;2023-12-28T10:32:35;9.70;;;5.18;;
62071;SDS011;48031;48.542;13.232;2023-12-28T10:36:37;7.57;;;4.72;;
62071;SDS011;48031;48.542;13.232;2023-12-28T10:40:41;10.80;;;6.07;;
62071;SDS011;48031;48.542;13.232;2023-12-28T10:44:44;9.23;;;5.15;;
62071;SDS011;48031;48.542;13.232;2023-12-28T10:48:49;8.00;;;4.57;;
62071;SDS011;48031;48.542;13.232;2023-12-28T10:52:54;8.73;;;4.07;;
62071;SDS011;48031;48.542;13.232;2023-12-28T10:57:05;6.25;;;3.67;;
62071;SDS011;48031;48.542;13.232;2023-12-28T11:01:08;9.05;;;4.63;;
62071;SDS011;48031;48.542;13.232;2023-12-28T11:05:15;6.57;;;4.30;;
62071;SDS011;48031;48.542;13.232;2023-12-28T11:09:17;7.45;;;4.47;;
62071;SDS011;48031;48.542;13.232;2023-12-28T11:13:19;5.55;;;3.80;;
62071;SDS011;48031;48.542;13.232;2023-12-28T11:17:23;5.55;;;3.47;;
62071;SDS011;48031;48.542;13.232;2023-12-28T11:21:26;8.77;;;4.32;;
62071;SDS011;48031;48.542;13.232;2023-12-28T11:25:32;7.97;;;3.88;;
62071;SDS011;48031;48.542;13.232;2023-12-28T11:29:34;7.07;;;4.30;;
62071;SDS011;48031;48.542;13.232;2023-12-28T11:33:46;6.40;;;3.88;;
62071;SDS011;48031;48.542;13.232;2023-12-28T11:37:48;5.50;;;3.20;;
62071;SDS011;48031;48.542;13.232;2023-12-28T11:41:52;3.70;;;2.63;;
62071;SDS011;48031;48.542;13.232;2023-12-28T11:46:00;4.78;;;3.08;;
62071;SDS011;48031;48.542;13.232;2023-12-28T11:50:06;4.53;;;3.00;;
62071;SDS011;48031;48.542;13.232;2023-12-28T11:54:07;3.92;;;2.70;;
62071;SDS011;48031;48.542;13.232;2023-12-28T11:58:09;5.90;;;2.83;;
62071;SDS011;48031;48.542;13.232;2023-12-28T12:02:16;4.75;;;3.47;;
62071;SDS011;48031;48.542;13.232;2023-12-28T12:06:18;6.22;;;3.88;;
62071;SDS011;48031;48.542;13.232;2023-12-28T12:10:20;5.47;;;3.53;;
62071;SDS011;48031;48.542;13.232;2023-12-28T12:14:23;6.72;;;3.33;;
62071;SDS011;48031;48.542;13.232;2023-12-28T12:18:25;6.90;;;4.22;;
62071;SDS011;48031;48.542;13.232;2023-12-28T12:22:27;8.38;;;4.60;;
62071;SDS011;48031;48.542;13.232;2023-12-28T12:26:30;6.65;;;4.18;;
62071;SDS011;48031;48.542;13.232;2023-12-28T12:30:32;4.72;;;3.40;;
62071;SDS011;48031;48.542;13.232;2023-12-28T12:34:34;7.43;;;4.13;;
62071;SDS011;48031;48.542;13.232;2023-12-28T12:38:36;9.43;;;5.70;;
62071;SDS011;48031;48.542;13.232;2023-12-28T12:42:38;9.77;;;4.63;;
62071;SDS011;48031;48.542;13.232;2023-12-28T12:46:40;9.70;;;5.93;;
62071;SDS011;48031;48.542;13.232;2023-12-28T12:50:42;9.02;;;4.78;;
62071;SDS011;48031;48.542;13.232;2023-12-28T12:54:51;7.07;;;3.75;;
62071;SDS011;48031;48.542;13.232;2023-12-28T12:58:54;7.40;;;3.55;;
62071;SDS011;48031;48.542;13.232;2023-12-28T13:02:59;6.57;;;3.58;;
62071;SDS011;48031;48.542;13.232;2023-12-28T13:07:01;5.32;;;2.97;;
62071;SDS011;48031;48.542;13.232;2023-12-28T13:11:03;14.30;;;5.85;;
62071;SDS011;48031;48.542;13.232;2023-12-28T13:15:05;13.35;;;4.85;;
62071;SDS011;48031;48.542;13.232;2023-12-28T13:19:07;55.05;;;16.95;;
62071;SDS011;48031;48.542;13.232;2023-12-28T13:23:10;26.23;;;9.70;;
62071;SDS011;48031;48.542;13.232;2023-12-28T13:27:12;17.45;;;6.28;;
62071;SDS011;48031;48.542;13.232;2023-12-28T13:31:13;9.93;;;4.38;;
62071;SDS011;48031;48.542;13.232;2023-12-28T13:35:15;7.18;;;3.80;;
62071;SDS011;48031;48.542;13.232;2023-12-28T13:39:17;7.88;;;4.50;;
62071;SDS011;48031;48.542;13.232;2023-12-28T13:43:19;15.93;;;5.50;;
62071;SDS011;48031;48.542;13.232;2023-12-28T13:47:21;14.18;;;5.45;;
62071;SDS011;48031;48.542;13.232;2023-12-28T13:51:23;8.75;;;4.38;;
62071;SDS011;48031;48.542;13.232;2023-12-28T13:55:25;5.10;;;3.17;;
62071;SDS011;48031;48.542;13.232;2023-12-28T13:59:26;9.82;;;4.82;;
62071;SDS011;48031;48.542;13.232;2023-12-28T14:03:28;7.75;;;3.70;;
62071;SDS011;48031;48.542;13.232;2023-12-28T14:07:30;7.68;;;3.33;;
62071;SDS011;48031;48.542;13.232;2023-12-28T14:11:32;10.25;;;5.43;;
62071;SDS011;48031;48.542;13.232;2023-12-28T14:15:34;7.78;;;4.57;;
62071;SDS011;48031;48.542;13.232;2023-12-28T14:19:36;6.88;;;4.30;;
62071;SDS011;48031;48.542;13.232;2023-12-28T14:23:37;5.25;;;3.92;;
62071;SDS011;48031;48.542;13.232;2023-12-28T14:27:39;4.32;;;3.40;;
62071;SDS011;48031;48.542;13.232;2023-12-28T14:31:41;5.85;;;3.47;;
62071;SDS011;48031;48.542;13.232;2023-12-28T14:35:45;10.75;;;4.93;;
62071;SDS011;48031;48.542;13.232;2023-12-28T14:39:49;29.80;;;8.27;;
62071;SDS011;48031;48.542;13.232;2023-12-28T14:43:50;24.13;;;8.15;;
62071;SDS011;48031;48.542;13.232;2023-12-28T14:47:52;14.45;;;6.28;;
62071;SDS011;48031;48.542;13.232;2023-12-28T14:51:54;10.38;;;4.50;;
62071;SDS011;48031;48.542;13.232;2023-12-28T14:55:56;7.00;;;3.33;;
62071;SDS011;48031;48.542;13.232;2023-12-28T14:59:58;7.03;;;3.58;;
62071;SDS011;48031;48.542;13.232;2023-12-28T15:04:00;6.15;;;3.25;;
62071;SDS011;48031;48.542;13.232;2023-12-28T15:08:01;6.28;;;3.13;;
62071;SDS011;48031;48.542;13.232;2023-12-28T15:12:03;4.20;;;2.60;;
62071;SDS011;48031;48.542;13.232;2023-12-28T15:16:05;3.63;;;2.65;;
62071;SDS011;48031;48.542;13.232;2023-12-28T15:20:07;5.30;;;3.55;;
62071;SDS011;48031;48.542;13.232;2023-12-28T15:24:10;4.30;;;3.10;;
62071;SDS011;48031;48.542;13.232;2023-12-28T15:28:12;4.60;;;2.70;;
62071;SDS011;48031;48.542;13.232;2023-12-28T15:32:14;7.30;;;3.95;;
62071;SDS011;48031;48.542;13.232;2023-12-28T15:36:16;5.90;;;3.45;;
62071;SDS011;48031;48.542;13.232;2023-12-28T15:40:18;8.40;;;4.50;;
62071;SDS011;48031;48.542;13.232;2023-12-28T15:44:19;14.88;;;7.05;;
62071;SDS011;48031;48.542;13.232;2023-12-28T15:48:21;20.55;;;7.88;;
62071;SDS011;48031;48.542;13.232;2023-12-28T15:52:23;16.48;;;7.45;;
62071;SDS011;48031;48.542;13.232;2023-12-28T15:56:25;14.70;;;6.88;;
62071;SDS011;48031;48.542;13.232;2023-12-28T16:00:27;12.05;;;6.18;;
62071;SDS011;48031;48.542;13.232;2023-12-28T16:04:29;11.02;;;6.75;;
62071;SDS011;48031;48.542;13.232;2023-12-28T16:08:31;14.43;;;7.40;;
62071;SDS011;48031;48.542;13.232;2023-12-28T16:12:33;10.38;;;5.88;;
62071;SDS011;48031;48.542;13.232;2023-12-28T16:16:35;17.20;;;7.10;;
62071;SDS011;48031;48.542;13.232;2023-12-28T16:20:38;16.05;;;7.63;;
62071;SDS011;48031;48.542;13.232;2023-12-28T16:24:39;12.10;;;7.00;;
62071;SDS011;48031;48.542;13.232;2023-12-28T16:28:41;11.82;;;6.75;;
62071;SDS011;48031;48.542;13.232;2023-12-28T16:32:43;10.75;;;6.00;;
62071;SDS011;48031;48.542;13.232;2023-12-28T16:36:47;8.95;;;5.13;;
62071;SDS011;48031;48.542;13.232;2023-12-28T16:40:49;7.00;;;4.35;;
62071;SDS011;48031;48.542;13.232;2023-12-28T16:44:51;11.02;;;6.38;;
62071;SDS011;48031;48.542;13.232;2023-12-28T16:48:52;9.48;;;5.53;;
62071;SDS011;48031;48.542;13.232;2023-12-28T16:52:55;8.80;;;4.53;;
62071;SDS011;48031;48.542;13.232;2023-12-28T16:56:56;13.63;;;6.35;;
62071;SDS011;48031;48.542;13.232;2023-12-28T17:00:58;9.50;;;5.63;;
62071;SDS011;48031;48.542;13.232;2023-12-28T17:05:00;9.38;;;4.75;;
62071;SDS011;48031;48.542;13.232;2023-12-28T17:09:03;9.00;;;4.60;;
62071;SDS011;48031;48.542;13.232;2023-12-28T17:13:10;14.48;;;8.63;;
62071;SDS011;48031;48.542;13.232;2023-12-28T17:17:12;14.48;;;7.50;;
62071;SDS011;48031;48.542;13.232;2023-12-28T17:21:14;10.48;;;5.43;;
62071;SDS011;48031;48.542;13.232;2023-12-28T17:29:26;8.35;;;5.30;;
62071;SDS011;48031;48.542;13.232;2023-12-28T17:33:30;9.50;;;5.32;;
62071;SDS011;48031;48.542;13.232;2023-12-28T17:37:32;10.38;;;6.20;;
62071;SDS011;48031;48.542;13.232;2023-12-28T17:41:36;14.57;;;6.15;;
62071;SDS011;48031;48.542;13.232;2023-12-28T17:49:43;14.65;;;7.00;;
62071;SDS011;48031;48.542;13.232;2023-12-28T17:53:52;12.82;;;6.97;;
62071;SDS011;48031;48.542;13.232;2023-12-28T17:57:54;17.20;;;8.30;;
62071;SDS011;48031;48.542;13.232;2023-12-28T18:01:56;11.60;;;6.78;;
62071;SDS011;48031;48.542;13.232;2023-12-28T18:05:58;10.75;;;6.38;;
62071;SDS011;48031;48.542;13.232;2023-12-28T18:10:00;9.75;;;5.35;;
62071;SDS011;48031;48.542;13.232;2023-12-28T18:14:02;12.05;;;6.22;;
62071;SDS011;48031;48.542;13.232;2023-12-28T18:18:04;11.65;;;6.93;;
62071;SDS011;48031;48.542;13.232;2023-12-28T18:22:07;11.05;;;6.90;;
62071;SDS011;48031;48.542;13.232;2023-12-28T18:26:09;11.43;;;7.57;;
62071;SDS011;48031;48.542;13.232;2023-12-28T18:30:12;13.95;;;7.90;;
62071;SDS011;48031;48.542;13.232;2023-12-28T18:34:14;10.73;;;6.90;;
62071;SDS011;48031;48.542;13.232;2023-12-28T18:38:17;13.23;;;6.72;;
62071;SDS011;48031;48.542;13.232;2023-12-28T18:42:19;15.60;;;8.52;;
62071;SDS011;48031;48.542;13.232;2023-12-28T18:46:21;11.73;;;6.55;;
62071;SDS011;48031;48.542;13.232;2023-12-28T18:50:23;11.60;;;7.28;;
62071;SDS011;48031;48.542;13.232;2023-12-28T18:54:25;16.67;;;8.90;;
62071;SDS011;48031;48.542;13.232;2023-12-28T18:58:27;18.33;;;9.38;;
62071;SDS011;48031;48.542;13.232;2023-12-28T19:02:28;18.02;;;8.75;;
62071;SDS011;48031;48.542;13.232;2023-12-28T19:06:30;16.55;;;8.10;;
62071;SDS011;48031;48.542;13.232;2023-12-28T19:10:32;14.35;;;8.48;;
62071;SDS011;48031;48.542;13.232;2023-12-28T19:14:34;12.68;;;6.50;;
62071;SDS011;48031;48.542;13.232;2023-12-28T19:18:36;9.77;;;5.53;;
62071;SDS011;48031;48.542;13.232;2023-12-28T19:22:38;8.20;;;4.90;;
62071;SDS011;48031;48.542;13.232;2023-12-28T19:26:40;7.13;;;4.10;;
62071;SDS011;48031;48.542;13.232;2023-12-28T19:30:42;7.35;;;4.43;;
62071;SDS011;48031;48.542;13.232;2023-12-28T19:34:44;7.30;;;4.32;;
62071;SDS011;48031;48.542;13.232;2023-12-28T19:38:46;6.70;;;3.92;;
62071;SDS011;48031;48.542;13.232;2023-12-28T19:42:48;9.90;;;4.60;;
62071;SDS011;48031;48.542;13.232;2023-12-28T19:46:50;11.30;;;5.45;;
62071;SDS011;48031;48.542;13.232;2023-12-28T19:50:52;10.35;;;5.95;;
62071;SDS011;48031;48.542;13.232;2023-12-28T19:54:54;7.93;;;4.80;;
62071;SDS011;48031;48.542;13.232;2023-12-28T19:58:56;12.98;;;6.70;;
62071;SDS011;48031;48.542;13.232;2023-12-28T20:02:58;9.35;;;5.65;;
62071;SDS011;48031;48.542;13.232;2023-12-28T20:07:00;8.63;;;5.57;;
62071;SDS011;48031;48.542;13.232;2023-12-28T20:11:03;7.38;;;4.38;;
62071;SDS011;48031;48.542;13.232;2023-12-28T20:15:05;6.65;;;4.18;;
62071;SDS011;48031;48.542;13.232;2023-12-28T20:19:11;9.40;;;5.15;;
62071;SDS011;48031;48.542;13.232;2023-12-28T20:23:14;6.60;;;4.00;;
62071;SDS011;48031;48.542;13.232;2023-12-28T20:27:15;6.97;;;4.20;;
62071;SDS011;48031;48.542;13.232;2023-12-28T20:31:17;5.80;;;3.70;;
62071;SDS011;48031;48.542;13.232;2023-12-28T20:35:20;7.93;;;4.95;;
62071;SDS011;48031;48.542;13.232;2023-12-28T20:39:21;6.15;;;4.03;;
62071;SDS011;48031;48.542;13.232;2023-12-28T20:43:23;5.70;;;3.78;;
62071;SDS011;48031;48.542;13.232;2023-12-28T20:47:25;6.50;;;3.90;;
62071;SDS011;48031;48.542;13.232;2023-12-28T20:51:27;10.48;;;6.00;;
62071;SDS011;48031;48.542;13.232;2023-12-28T20:55:29;10.15;;;5.32;;
62071;SDS011;48031;48.542;13.232;2023-12-28T20:59:31;10.70;;;5.45;;
62071;SDS011;48031;48.542;13.232;2023-12-28T21:03:33;11.32;;;6.60;;
62071;SDS011;48031;48.542;13.232;2023-12-28T21:07:36;10.55;;;6.32;;
62071;SDS011;48031;48.542;13.232;2023-12-28T21:11:39;11.80;;;6.30;;
62071;SDS011;48031;48.542;13.232;2023-12-28T21:15:41;6.80;;;4.28;;
62071;SDS011;48031;48.542;13.232;2023-12-28T21:19:43;8.45;;;5.38;;
62071;SDS011;48031;48.542;13.232;2023-12-28T21:23:48;5.68;;;4.05;;
62071;SDS011;48031;48.542;13.232;2023-12-28T21:27:51;6.93;;;4.13;;
62071;SDS011;48031;48.542;13.232;2023-12-28T21:31:53;6.28;;;4.10;;
62071;SDS011;48031;48.542;13.232;2023-12-28T21:35:55;9.18;;;5.00;;
62071;SDS011;48031;48.542;13.232;2023-12-28T21:39:57;10.77;;;5.88;;
62071;SDS011;48031;48.542;13.232;2023-12-28T21:43:59;10.57;;;6.07;;
62071;SDS011;48031;48.542;13.232;2023-12-28T21:48:01;9.07;;;5.85;;
62071;SDS011;48031;48.542;13.232;2023-12-28T21:52:04;9.48;;;4.75;;
62071;SDS011;48031;48.542;13.232;2023-12-28T21:56:06;8.95;;;5.03;;
62071;SDS011;48031;48.542;13.232;2023-12-28T22:00:08;8.13;;;4.55;;
62071;SDS011;48031;48.542;13.232;2023-12-28T22:04:10;9.98;;;5.60;;
62071;SDS011;48031;48.542;13.232;2023-12-28T22:08:12;10.52;;;6.20;;
62071;SDS011;48031;48.542;13.232;2023-12-28T22:12:14;11.20;;;6.13;;
62071;SDS011;48031;48.542;13.232;2023-12-28T22:16:16;10.50;;;6.82;;
62071;SDS011;48031;48.542;13.232;2023-12-28T22:20:18;10.52;;;6.00;;
62071;SDS011;48031;48.542;13.232;2023-12-28T22:24:21;10.30;;;5.90;;
62071;SDS011;48031;48.542;13.232;2023-12-28T22:28:22;10.40;;;6.05;;
62071;SDS011;48031;48.542;13.232;2023-12-28T22:32:24;12.23;;;6.10;;
62071;SDS011;48031;48.542;13.232;2023-12-28T22:36:26;9.57;;;5.00;;
62071;SDS011;48031;48.542;13.232;2023-12-28T22:40:28;9.05;;;4.97;;
62071;SDS011;48031;48.542;13.232;2023-12-28T22:44:30;9.18;;;5.07;;
62071;SDS011;48031;48.542;13.232;2023-12-28T22:48:31;9.07;;;4.88;;
62071;SDS011;48031;48.542;13.232;2023-12-28T22:52:33;5.68;;;3.50;;
62071;SDS011;48031;48.542;13.232;2023-12-28T22:56:36;8.43;;;4.63;;
62071;SDS011;48031;48.542;13.232;2023-12-28T23:00:37;4.50;;;3.10;;
62071;SDS011;48031;48.542;13.232;2023-12-28T23:04:42;3.83;;;2.80;;
62071;SDS011;48031;48.542;13.232;2023-12-28T23:08:56;8.15;;;4.80;;
62071;SDS011;48031;48.542;13.232;2023-12-28T23:12:58;11.00;;;5.72;;
62071;SDS011;48031;48.542;13.232;2023-12-28T23:17:02;6.70;;;4.15;;
62071;SDS011;48031;48.542;13.232;2023-12-28T23:21:04;6.68;;;4.03;;
62071;SDS011;48031;48.542;13.232;2023-12-28T23:25:06;15.25;;;8.65;;
62071;SDS011;48031;48.542;13.232;2023-12-28T23:29:08;11.40;;;6.00;;
62071;SDS011;48031;48.542;13.232;2023-12-28T23:33:10;9.15;;;5.55;;
62071;SDS011;48031;48.542;13.232;2023-12-28T23:37:14;9.10;;;4.85;;
62071;SDS011;48031;48.542;13.232;2023-12-28T23:41:16;6.40;;;3.50;;
62071;SDS011;48031;48.542;13.232;2023-12-28T23:45:18;6.57;;;3.88;;
62071;SDS011;48031;48.542;13.232;2023-12-28T23:49:20;6.10;;;3.40;;
62071;SDS011;48031;48.542;13.232;2023-12-28T23:53:22;3.95;;;2.95;;
62071;SDS011;48031;48.542;13.232;2023-12-28T23:57:24;4.00;;;2.60;;
